Terminal Aerodrome Forecast
Issued by NWS Birmingham, AL

Current Version | Previous Version | Text Only | Print | Product List | Glossary On
Versions: 1 2 3 4 5 6 7 8 9 10 11 12 13 14 15 16 17 18 19
000
FTUS44 KBMX 251137
TAFBHM
TAF
KBHM 251137Z 2512/2612 32010G20KT 3SM RA SCT008 BKN015 OVC035
     FM251400 35005KT 6SM -SHRA SCT025 BKN050
     FM260300 07004KT 6SM -SHRA BKN015
     FM260600 07005KT 4SM -SHRA BR BKN007=

USA.gov is the U.S. government's official web portal to all federal, state and local government web resources and services.